createdAt,value
2019-03-28T00:00:03.275Z,18.93
2019-03-28T00:02:32.112Z,22.80
2019-03-28T00:05:00.967Z,22.40
2019-03-28T00:07:29.808Z,22.20
2019-03-28T00:09:58.882Z,22.80
2019-03-28T00:12:28.293Z,22.53
2019-03-28T00:14:57.866Z,21.52
2019-03-28T00:17:26.688Z,23.67
2019-03-28T00:19:55.670Z,27.93
2019-03-28T00:22:25.104Z,26.13
2019-03-28T00:24:55.876Z,25.13
2019-03-28T00:27:24.715Z,25.40
2019-03-28T00:29:54.265Z,21.73
2019-03-28T00:32:22.387Z,23.80
2019-03-28T00:34:51.235Z,22.80
2019-03-28T00:37:20.077Z,21.70
2019-03-28T00:39:48.912Z,26.53
2019-03-28T00:42:18.364Z,23.03
2019-03-28T00:44:47.209Z,25.48
2019-03-28T00:47:16.800Z,27.80
2019-03-28T00:49:46.384Z,24.83
2019-03-28T00:52:15.236Z,26.92
2019-03-28T00:54:44.080Z,29.07
2019-03-28T00:57:13.656Z,25.43
2019-03-28T00:59:42.501Z,27.85
2019-03-28T01:02:11.348Z,24.13
2019-03-28T01:04:40.218Z,23.10
2019-03-28T01:07:09.046Z,23.00
2019-03-28T01:09:37.894Z,24.57
2019-03-28T01:12:06.747Z,25.75
2019-03-28T01:14:35.603Z,28.20
2019-03-28T01:17:05.277Z,25.73
2019-03-28T01:19:34.060Z,26.20
2019-03-28T01:22:02.895Z,26.80
2019-03-28T01:24:32.477Z,26.97
2019-03-28T01:27:01.316Z,25.75
2019-03-28T01:29:30.147Z,24.23
2019-03-28T01:31:58.988Z,25.77
2019-03-28T01:34:27.824Z,27.93
2019-03-28T01:36:56.665Z,27.30
2019-03-28T01:39:25.511Z,25.50
2019-03-28T01:41:54.362Z,27.37
2019-03-28T01:44:23.196Z,25.07
2019-03-28T01:46:52.028Z,26.13
2019-03-28T01:49:20.888Z,27.97
2019-03-28T01:51:49.737Z,28.23
2019-03-28T01:54:18.580Z,31.55
2019-03-28T01:56:48.186Z,27.70
2019-03-28T01:59:17.767Z,26.37
2019-03-28T02:01:46.604Z,26.37
2019-03-28T02:04:15.436Z,28.73
2019-03-28T02:06:44.293Z,26.70
2019-03-28T02:09:13.139Z,26.47
2019-03-28T02:11:42.734Z,27.85
2019-03-28T02:14:12.346Z,28.57
2019-03-28T02:16:40.442Z,27.53
2019-03-28T02:19:10.022Z,29.17
2019-03-28T02:21:38.874Z,28.60
2019-03-28T02:24:07.724Z,29.63
2019-03-28T02:26:36.572Z,27.70
2019-03-28T02:29:05.420Z,30.10
2019-03-28T02:31:34.257Z,27.13
2019-03-28T02:34:03.847Z,27.10
2019-03-28T02:36:32.688Z,28.43
2019-03-28T02:39:01.536Z,29.60
2019-03-28T02:41:30.428Z,28.17
2019-03-28T02:43:59.269Z,31.03
2019-03-28T02:46:28.117Z,30.77
2019-03-28T02:48:56.981Z,29.87
2019-03-28T02:51:25.814Z,27.97
2019-03-28T02:53:54.667Z,29.13
2019-03-28T02:56:23.634Z,30.97
2019-03-28T02:58:52.340Z,30.83
2019-03-28T03:01:21.183Z,28.93
2019-03-28T03:03:50.045Z,33.93
2019-03-28T03:06:18.867Z,30.33
2019-03-28T03:08:47.698Z,32.43
2019-03-28T03:11:16.552Z,30.47
2019-03-28T03:13:45.858Z,28.83
2019-03-28T03:16:14.229Z,30.67
2019-03-28T03:18:43.074Z,33.87
2019-03-28T03:21:12.489Z,30.30
2019-03-28T03:23:41.339Z,32.57
2019-03-28T03:26:10.175Z,30.73
2019-03-28T03:28:39.007Z,30.30
2019-03-28T03:31:07.849Z,29.10
2019-03-28T03:33:37.980Z,30.43
2019-03-28T03:36:06.285Z,27.50
2019-03-28T03:38:35.115Z,29.93
2019-03-28T03:41:03.962Z,31.90
2019-03-28T03:43:33.946Z,32.33
2019-03-28T03:46:02.774Z,28.33
2019-03-28T03:48:31.618Z,32.90
2019-03-28T03:51:01.205Z,33.63
2019-03-28T03:53:30.058Z,31.77
2019-03-28T03:55:58.886Z,28.40
2019-03-28T03:58:27.719Z,32.40
2019-03-28T04:00:56.649Z,28.80
2019-03-28T04:03:25.477Z,35.30
2019-03-28T04:05:54.331Z,28.40
2019-03-28T04:08:23.164Z,32.00
2019-03-28T04:10:52.007Z,31.13
2019-03-28T04:13:20.849Z,28.27
2019-03-28T04:15:49.685Z,29.50
2019-03-28T04:18:21.919Z,29.97
2019-03-28T04:20:47.351Z,29.93
2019-03-28T04:23:16.207Z,32.97
2019-03-28T04:25:45.029Z,29.13
2019-03-28T04:28:24.787Z,28.30
2019-03-28T04:30:42.755Z,26.60
2019-03-28T04:33:12.326Z,31.63
2019-03-28T04:35:41.173Z,33.37
2019-03-28T04:38:10.019Z,28.73
2019-03-28T04:40:38.880Z,31.00
2019-03-28T04:43:07.732Z,30.20
2019-03-28T04:45:36.572Z,28.80
2019-03-28T04:48:05.413Z,30.60
2019-03-28T04:50:34.248Z,31.03
2019-03-28T04:53:03.088Z,28.83
2019-03-28T04:55:31.928Z,33.23
2019-03-28T04:58:00.762Z,32.47
2019-03-28T05:00:29.606Z,32.93
2019-03-28T05:02:58.459Z,30.90
2019-03-28T05:05:27.297Z,29.33
2019-03-28T05:07:56.123Z,32.50
2019-03-28T05:10:24.975Z,27.97
2019-03-28T05:12:53.801Z,29.87
2019-03-28T05:15:22.650Z,30.83
2019-03-28T05:17:51.479Z,30.93
2019-03-28T05:20:20.311Z,27.63
2019-03-28T05:22:49.151Z,29.83
2019-03-28T05:25:17.984Z,30.10
2019-03-28T05:27:46.826Z,31.27
2019-03-28T05:30:15.678Z,31.83
2019-03-28T05:32:44.506Z,32.90
2019-03-28T05:35:13.382Z,33.30
2019-03-28T05:37:42.190Z,35.30
2019-03-28T05:40:11.101Z,35.43
2019-03-28T05:42:39.876Z,33.40
2019-03-28T05:45:08.706Z,36.20
2019-03-28T05:47:37.536Z,34.07
2019-03-28T05:50:06.405Z,35.03
2019-03-28T05:52:35.251Z,38.80
2019-03-28T05:55:05.506Z,36.80
2019-03-28T05:57:32.936Z,37.77
2019-03-28T06:00:01.789Z,40.72
2019-03-28T06:02:30.616Z,37.27
2019-03-28T06:05:00.454Z,36.67
2019-03-28T06:07:29.258Z,40.80
2019-03-28T06:09:58.852Z,42.45
2019-03-28T06:12:27.708Z,42.30
2019-03-28T06:14:56.600Z,40.03
2019-03-28T06:17:25.437Z,39.57
2019-03-28T06:19:55.022Z,41.17
2019-03-28T06:22:23.846Z,44.77
2019-03-28T06:24:52.692Z,42.30
2019-03-28T06:27:21.667Z,44.37
2019-03-28T06:29:50.502Z,42.53
2019-03-28T06:32:20.086Z,45.87
2019-03-28T06:34:48.951Z,43.53
2019-03-28T06:37:17.786Z,45.17
2019-03-28T06:39:46.633Z,49.13
2019-03-28T06:42:15.462Z,44.87
2019-03-28T06:44:45.044Z,47.77
2019-03-28T06:47:14.461Z,45.20
2019-03-28T06:49:44.097Z,45.77
2019-03-28T06:52:12.910Z,47.23
2019-03-28T06:54:41.756Z,45.97
2019-03-28T06:57:10.608Z,51.80
2019-03-28T06:59:39.442Z,51.60
2019-03-28T07:02:08.285Z,47.80
2019-03-28T07:04:37.166Z,50.53
2019-03-28T07:07:06.632Z,53.00
2019-03-28T07:09:34.851Z,53.73
2019-03-28T07:12:03.690Z,56.17
2019-03-28T07:14:32.542Z,57.40
2019-03-28T07:17:01.388Z,61.87
2019-03-28T07:19:30.244Z,57.60
2019-03-28T07:21:59.131Z,54.37
2019-03-28T07:24:27.993Z,57.67
2019-03-28T07:26:56.836Z,58.00
2019-03-28T07:29:25.727Z,56.93
2019-03-28T07:31:54.500Z,58.00
2019-03-28T07:34:23.357Z,56.93
2019-03-28T07:36:52.213Z,55.83
2019-03-28T07:39:21.046Z,52.47
2019-03-28T07:41:50.623Z,52.03
2019-03-28T07:44:19.482Z,51.07
2019-03-28T07:46:48.318Z,54.13
2019-03-28T07:49:17.160Z,55.93
2019-03-28T07:51:45.998Z,51.90
2019-03-28T07:54:14.837Z,53.95
2019-03-28T07:56:43.773Z,52.22
2019-03-28T07:59:12.617Z,53.87
2019-03-28T08:01:41.453Z,50.20
2019-03-28T08:04:12.320Z,51.73
2019-03-28T08:06:49.163Z,54.43
2019-03-28T08:09:08.046Z,49.03
2019-03-28T08:11:38.714Z,51.33
2019-03-28T08:14:06.465Z,50.00
2019-03-28T08:16:35.303Z,48.92
2019-03-28T08:19:04.151Z,51.50
2019-03-28T08:21:32.987Z,49.97
2019-03-28T08:24:01.825Z,47.30
2019-03-28T08:26:30.677Z,44.00
2019-03-28T08:28:59.520Z,43.90
2019-03-28T08:31:28.375Z,45.63
2019-03-28T08:33:57.300Z,43.83
2019-03-28T08:36:26.135Z,50.17
2019-03-28T08:38:54.977Z,45.60
2019-03-28T08:41:23.801Z,44.30
2019-03-28T08:43:52.647Z,44.17
2019-03-28T08:46:21.469Z,39.87
2019-03-28T08:48:50.314Z,35.30
2019-03-28T08:51:19.164Z,38.70
2019-03-28T08:53:48.027Z,35.13
2019-03-28T08:56:16.872Z,34.73
2019-03-28T08:58:45.717Z,33.83
2019-03-28T09:01:15.151Z,36.60
2019-03-28T09:03:43.985Z,38.97
2019-03-28T09:06:12.832Z,34.87
2019-03-28T09:08:41.731Z,33.80
2019-03-28T09:11:10.518Z,34.07
2019-03-28T09:13:39.351Z,36.50
2019-03-28T09:16:08.189Z,32.87
2019-03-28T09:18:37.039Z,39.03
2019-03-28T09:21:05.889Z,34.57
2019-03-28T09:23:34.733Z,31.63
2019-03-28T09:26:04.517Z,33.73
2019-03-28T09:28:32.475Z,36.23
2019-03-28T09:31:01.371Z,38.63
2019-03-28T09:33:30.198Z,38.00
2019-03-28T09:35:59.889Z,35.27
2019-03-28T09:38:28.690Z,33.73
2019-03-28T09:40:58.290Z,34.50
2019-03-28T09:43:27.141Z,30.47
2019-03-28T09:45:55.993Z,37.63
2019-03-28T09:48:24.853Z,36.10
2019-03-28T09:50:53.723Z,35.17
2019-03-28T09:53:22.581Z,34.40
2019-03-28T09:55:51.473Z,39.17
2019-03-28T09:58:20.305Z,35.10
2019-03-28T10:01:02.088Z,37.93
2019-03-28T10:03:17.985Z,34.67
2019-03-28T10:05:47.426Z,33.73
2019-03-28T10:08:16.295Z,34.28
2019-03-28T10:10:48.583Z,32.73
2019-03-28T10:13:15.479Z,31.30
2019-03-28T10:15:44.338Z,28.67
2019-03-28T10:18:13.204Z,26.60
2019-03-28T10:20:42.075Z,24.57
2019-03-28T10:23:10.941Z,26.23
2019-03-28T10:25:40.573Z,24.67
2019-03-28T10:28:08.708Z,25.27
2019-03-28T10:30:37.539Z,23.27
2019-03-28T10:35:26.248Z,23.77
2019-03-28T10:37:55.097Z,26.05
2019-03-28T10:40:24.691Z,24.57
2019-03-28T10:42:53.539Z,30.67
2019-03-28T10:45:22.394Z,30.13
2019-03-28T10:47:51.241Z,25.63
2019-03-28T10:50:20.853Z,27.27
2019-03-28T10:52:50.315Z,28.77
2019-03-28T10:55:19.158Z,26.73
2019-03-28T10:57:48.035Z,25.83
2019-03-28T11:00:23.869Z,26.20
2019-03-28T11:02:45.804Z,23.60
2019-03-28T11:05:14.763Z,22.67
2019-03-28T11:07:43.477Z,18.70
2019-03-28T11:10:12.283Z,19.97
2019-03-28T11:12:41.137Z,16.03
2019-03-28T11:15:09.977Z,20.53
2019-03-28T11:17:39.581Z,19.73
2019-03-28T11:20:09.801Z,18.75
2019-03-28T11:22:38.114Z,16.87
2019-03-28T11:25:06.879Z,18.12
2019-03-28T11:27:35.744Z,18.20
2019-03-28T11:30:05.175Z,16.93
2019-03-28T11:32:35.891Z,17.40
2019-03-28T11:35:02.909Z,16.40
2019-03-28T11:37:31.753Z,16.65
2019-03-28T11:40:00.616Z,16.70
2019-03-28T11:42:30.214Z,15.17
2019-03-28T11:44:59.059Z,17.67
2019-03-28T11:47:27.894Z,18.10
2019-03-28T11:49:56.758Z,16.83
2019-03-28T11:52:25.610Z,16.20
2019-03-28T11:54:54.459Z,16.17
2019-03-28T11:57:23.309Z,14.63
2019-03-28T11:59:52.153Z,14.37
2019-03-28T12:02:21.018Z,16.70
2019-03-28T12:04:49.859Z,14.63
2019-03-28T12:07:18.707Z,17.33
2019-03-28T12:09:47.549Z,16.53
2019-03-28T12:12:16.385Z,13.37
2019-03-28T12:14:45.972Z,10.87
2019-03-28T12:17:14.811Z,16.17
2019-03-28T12:19:43.671Z,17.77
2019-03-28T12:22:12.571Z,13.63
2019-03-28T12:24:41.443Z,15.70
2019-03-28T12:27:10.289Z,15.63
2019-03-28T12:29:39.150Z,14.77
2019-03-28T12:32:14.275Z,16.87
2019-03-28T12:34:38.357Z,17.83
2019-03-28T12:37:07.955Z,16.20
2019-03-28T12:39:37.551Z,17.60
2019-03-28T12:42:06.401Z,17.30
2019-03-28T12:44:35.247Z,14.85
2019-03-28T12:47:04.097Z,16.07
2019-03-28T12:49:32.985Z,15.77
2019-03-28T12:52:01.826Z,14.15
2019-03-28T12:54:30.673Z,16.67
2019-03-28T12:56:59.517Z,17.07
2019-03-28T12:59:28.399Z,13.17
2019-03-28T13:01:57.222Z,15.97
2019-03-28T13:04:26.070Z,15.52
2019-03-28T13:06:54.969Z,15.17
2019-03-28T13:09:23.981Z,13.87
2019-03-28T13:11:52.810Z,12.18
2019-03-28T13:14:21.737Z,12.03
2019-03-28T13:16:50.593Z,15.37
2019-03-28T13:19:19.399Z,12.40
2019-03-28T13:21:48.275Z,13.27
2019-03-28T13:24:17.174Z,14.57
2019-03-28T13:26:46.113Z,14.03
2019-03-28T13:29:14.948Z,14.13
2019-03-28T13:31:43.783Z,8.83
2019-03-28T13:34:12.623Z,9.27
2019-03-28T13:36:41.475Z,9.77
2019-03-28T13:39:10.411Z,11.40
2019-03-28T13:41:39.227Z,10.40
2019-03-28T13:44:08.099Z,8.90
2019-03-28T13:46:37.845Z,9.73
2019-03-28T13:49:06.654Z,7.93
2019-03-28T13:51:35.496Z,9.03
2019-03-28T13:54:04.340Z,11.27
2019-03-28T13:56:33.186Z,8.80
2019-03-28T13:59:02.032Z,8.10
2019-03-28T14:01:30.898Z,8.17
2019-03-28T14:03:59.826Z,9.30
2019-03-28T14:06:28.702Z,8.90
2019-03-28T14:08:57.546Z,7.57
2019-03-28T14:11:26.357Z,7.37
2019-03-28T14:13:55.271Z,8.20
2019-03-28T14:16:24.119Z,7.37
2019-03-28T14:18:52.983Z,8.45
2019-03-28T14:21:21.805Z,7.57
2019-03-28T14:23:50.655Z,7.40
2019-03-28T14:26:20.264Z,6.32
2019-03-28T14:28:50.343Z,6.35
2019-03-28T14:31:18.031Z,9.03
2019-03-28T14:33:46.896Z,8.43
2019-03-28T14:36:15.742Z,6.73
2019-03-28T14:38:44.616Z,6.33
2019-03-28T14:41:13.484Z,7.03
2019-03-28T14:43:42.307Z,8.00
2019-03-28T14:46:11.139Z,7.30
2019-03-28T14:48:39.997Z,8.50
2019-03-28T14:51:08.853Z,7.20
2019-03-28T14:53:38.494Z,6.50
2019-03-28T14:56:07.319Z,8.17
2019-03-28T14:58:36.922Z,6.33
2019-03-28T15:01:05.751Z,7.18
2019-03-28T15:03:34.576Z,7.67
2019-03-28T15:06:03.420Z,6.37
2019-03-28T15:08:32.273Z,6.90
2019-03-28T15:11:01.681Z,5.80
2019-03-28T15:13:29.958Z,5.37
2019-03-28T15:15:59.553Z,4.47
2019-03-28T15:18:28.414Z,3.77
2019-03-28T15:20:57.246Z,4.03
2019-03-28T15:23:26.098Z,4.70
2019-03-28T15:26:07.477Z,5.67
2019-03-28T15:28:37.109Z,6.20
2019-03-28T15:31:06.676Z,7.13
2019-03-28T15:33:39.855Z,4.53
2019-03-28T15:36:05.122Z,6.15
2019-03-28T15:38:33.972Z,7.10
2019-03-28T15:41:02.905Z,6.50
2019-03-28T15:43:31.680Z,5.03
2019-03-28T15:46:00.554Z,5.17
2019-03-28T15:48:29.434Z,5.80
2019-03-28T15:50:58.260Z,6.87
2019-03-28T15:53:27.112Z,5.70
2019-03-28T15:55:55.963Z,8.30
2019-03-28T15:58:24.794Z,8.87
2019-03-28T16:00:53.654Z,7.27
2019-03-28T16:03:22.512Z,5.70
2019-03-28T16:05:58.283Z,7.53
2019-03-28T16:08:20.950Z,6.35
2019-03-28T16:10:50.547Z,6.40
2019-03-28T16:13:19.435Z,6.20
2019-03-28T16:15:48.252Z,6.27
2019-03-28T16:18:17.141Z,6.25
2019-03-28T16:20:45.970Z,6.47
2019-03-28T16:23:14.799Z,7.20
2019-03-28T16:25:43.627Z,5.47
2019-03-28T16:28:12.475Z,5.23
2019-03-28T16:30:41.329Z,7.60
2019-03-28T16:33:10.169Z,6.10
2019-03-28T16:35:39.016Z,7.63
2019-03-28T16:38:07.949Z,5.20
2019-03-28T16:40:37.555Z,5.53
2019-03-28T16:43:07.609Z,7.13
2019-03-28T16:45:36.008Z,5.73
2019-03-28T16:48:04.860Z,6.15
2019-03-28T16:50:34.194Z,5.80
2019-03-28T16:53:02.628Z,5.30
2019-03-28T16:55:32.208Z,5.00
2019-03-28T16:58:01.076Z,6.57
2019-03-28T17:00:33.814Z,5.15
2019-03-28T17:03:02.647Z,5.30
2019-03-28T17:05:34.514Z,8.20
2019-03-28T17:08:00.420Z,7.40
2019-03-28T17:10:33.077Z,7.03
2019-03-28T17:13:01.939Z,5.47
2019-03-28T17:15:31.566Z,4.57
2019-03-28T17:18:01.124Z,6.27
2019-03-28T17:20:29.995Z,7.00
2019-03-28T17:22:58.845Z,5.80
2019-03-28T17:25:27.726Z,4.87
2019-03-28T17:27:56.615Z,7.10
2019-03-28T17:30:25.440Z,5.23
2019-03-28T17:32:54.285Z,5.67
2019-03-28T17:35:23.132Z,4.50
2019-03-28T17:37:51.986Z,5.03
2019-03-28T17:40:20.824Z,5.77
2019-03-28T17:42:50.195Z,6.70
2019-03-28T17:45:18.553Z,4.97
2019-03-28T17:47:47.396Z,5.07
2019-03-28T17:50:16.315Z,5.40
2019-03-28T17:52:45.175Z,5.97
2019-03-28T17:55:13.996Z,5.47
2019-03-28T17:57:42.852Z,5.97
2019-03-28T18:00:11.709Z,4.33
2019-03-28T18:02:40.559Z,5.27
2019-03-28T18:05:12.890Z,4.07
2019-03-28T18:07:39.014Z,4.83
2019-03-28T18:10:07.918Z,6.77
2019-03-28T18:12:36.740Z,7.17
2019-03-28T18:15:05.623Z,7.90
2019-03-28T18:17:34.488Z,5.80
2019-03-28T18:20:03.388Z,5.40
2019-03-28T18:22:32.254Z,6.27
2019-03-28T18:25:01.107Z,4.90
2019-03-28T18:27:29.966Z,6.50
2019-03-28T18:29:58.893Z,5.50
2019-03-28T18:32:27.727Z,5.75
2019-03-28T18:35:05.355Z,5.00
2019-03-28T18:37:25.450Z,4.90
2019-03-28T18:39:54.930Z,6.57
2019-03-28T18:42:23.173Z,5.40
2019-03-28T18:44:52.063Z,4.90
2019-03-28T18:47:20.972Z,6.67
2019-03-28T18:49:49.865Z,7.63
2019-03-28T18:52:18.748Z,4.67
2019-03-28T18:54:47.664Z,5.10
2019-03-28T18:57:19.613Z,4.87
2019-03-28T18:59:45.417Z,4.47
2019-03-28T19:02:14.266Z,4.65
2019-03-28T19:04:43.179Z,5.30
2019-03-28T19:07:12.006Z,4.93
2019-03-28T19:09:41.624Z,4.33
2019-03-28T19:12:11.220Z,5.12
2019-03-28T19:14:40.099Z,6.37
2019-03-28T19:17:08.960Z,4.22
2019-03-28T19:19:39.521Z,3.43
2019-03-28T19:22:06.740Z,5.40
2019-03-28T19:24:35.586Z,3.73
2019-03-28T19:27:04.452Z,3.90
2019-03-28T19:29:33.303Z,5.57
2019-03-28T19:32:02.164Z,4.67
2019-03-28T19:34:31.227Z,3.57
2019-03-28T19:37:00.077Z,3.73
2019-03-28T19:39:30.741Z,4.37
2019-03-28T19:41:59.672Z,4.53
2019-03-28T19:44:28.487Z,5.23
2019-03-28T19:46:57.378Z,4.40
2019-03-28T19:49:26.281Z,4.30
2019-03-28T19:51:55.165Z,5.50
2019-03-28T19:54:24.012Z,6.03
2019-03-28T19:56:52.978Z,4.90
2019-03-28T19:59:21.802Z,4.10
2019-03-28T20:01:50.724Z,5.50
2019-03-28T20:04:20.156Z,5.57
2019-03-28T20:06:49.385Z,5.30
2019-03-28T20:09:18.383Z,5.00
2019-03-28T20:11:47.038Z,4.33
2019-03-28T20:14:16.646Z,3.57
2019-03-28T20:16:46.274Z,4.07
2019-03-28T20:19:17.716Z,4.80
2019-03-28T20:21:44.003Z,4.10
2019-03-28T20:24:12.840Z,5.87
2019-03-28T20:26:41.702Z,5.40
2019-03-28T20:29:10.565Z,5.30
2019-03-28T20:31:39.445Z,4.70
2019-03-28T20:34:08.260Z,4.20
2019-03-28T20:36:40.760Z,5.77
2019-03-28T20:39:06.297Z,4.47
2019-03-28T20:41:35.681Z,5.27
2019-03-28T20:44:05.298Z,6.50
2019-03-28T20:46:34.132Z,7.00
2019-03-28T20:49:02.974Z,6.43
2019-03-28T20:51:31.827Z,4.40
2019-03-28T20:54:00.674Z,4.20
2019-03-28T20:56:29.528Z,5.07
2019-03-28T20:58:59.130Z,7.60
2019-03-28T21:01:28.728Z,5.00
2019-03-28T21:03:57.569Z,5.13
2019-03-28T21:06:26.414Z,5.87
2019-03-28T21:08:55.282Z,4.47
2019-03-28T21:11:24.124Z,5.25
2019-03-28T21:13:52.978Z,6.53
2019-03-28T21:16:21.830Z,5.67
2019-03-28T21:18:50.663Z,4.80
2019-03-28T21:21:20.271Z,9.00
2019-03-28T21:23:49.121Z,9.80
2019-03-28T21:26:17.995Z,6.50
2019-03-28T21:28:47.835Z,6.80
2019-03-28T21:31:16.388Z,7.07
2019-03-28T21:33:45.247Z,5.70
2019-03-28T21:36:28.583Z,5.83
2019-03-28T21:38:44.471Z,6.80
2019-03-28T21:41:14.052Z,5.90
2019-03-28T21:43:42.906Z,6.87
2019-03-28T21:46:11.747Z,5.90
2019-03-28T21:48:41.334Z,6.30
2019-03-28T21:51:11.651Z,5.70
2019-03-28T21:53:39.058Z,7.07
2019-03-28T21:56:07.917Z,6.83
2019-03-28T21:58:37.533Z,6.13
2019-03-28T22:01:07.008Z,7.87
2019-03-28T22:03:35.259Z,7.57
2019-03-28T22:06:04.086Z,5.97
2019-03-28T22:08:33.035Z,6.10
2019-03-28T22:11:02.577Z,8.83
2019-03-28T22:13:31.509Z,8.83
2019-03-28T22:16:01.124Z,8.98
2019-03-28T22:18:29.973Z,8.48
2019-03-28T22:20:58.792Z,8.32
2019-03-28T22:23:27.622Z,8.27
2019-03-28T22:25:56.516Z,7.50
2019-03-28T22:28:25.343Z,7.33
2019-03-28T22:30:54.233Z,7.07
2019-03-28T22:33:23.810Z,8.73
2019-03-28T22:35:52.664Z,8.50
2019-03-28T22:38:21.520Z,8.33
2019-03-28T22:40:50.577Z,7.50
2019-03-28T22:43:19.393Z,7.30
2019-03-28T22:45:48.989Z,7.63
2019-03-28T22:48:17.867Z,7.87
2019-03-28T22:50:46.703Z,7.60
2019-03-28T22:53:15.560Z,6.13
2019-03-28T22:55:45.163Z,5.80
2019-03-28T22:58:14.188Z,6.60
2019-03-28T23:00:45.879Z,6.53
2019-03-28T23:03:14.732Z,6.70
2019-03-28T23:05:43.593Z,6.83
2019-03-28T23:08:12.419Z,6.67
2019-03-28T23:10:41.266Z,7.43
2019-03-28T23:13:10.486Z,6.77
2019-03-28T23:15:39.311Z,7.20
2019-03-28T23:18:08.161Z,8.00
2019-03-28T23:20:37.744Z,7.70
2019-03-28T23:23:06.588Z,9.50
2019-03-28T23:25:36.292Z,11.47
2019-03-28T23:28:04.275Z,10.40
2019-03-28T23:30:33.102Z,8.73
2019-03-28T23:33:01.964Z,9.47
2019-03-28T23:35:30.813Z,9.83
2019-03-28T23:37:59.654Z,7.30
2019-03-28T23:40:29.907Z,9.23
2019-03-28T23:42:57.332Z,7.93
2019-03-28T23:45:26.164Z,9.43
2019-03-28T23:47:55.810Z,9.10
2019-03-28T23:50:23.860Z,9.33
2019-03-28T23:52:52.731Z,10.60
2019-03-28T23:55:21.600Z,12.00
2019-03-28T23:57:50.455Z,11.55
